sensor_id;sensor_type;location;lat;lon;timestamp;P1;durP1;ratioP1;P2;durP2;ratioP2
12798;SDS011;19250;42.646;26.980;2022-10-30T00:01:02;12.70;;;11.40;;
12798;SDS011;19250;42.646;26.980;2022-10-30T00:03:29;14.77;;;11.40;;
12798;SDS011;19250;42.646;26.980;2022-10-30T00:05:57;14.27;;;11.98;;
12798;SDS011;19250;42.646;26.980;2022-10-30T00:08:24;13.15;;;11.35;;
12798;SDS011;19250;42.646;26.980;2022-10-30T00:10:51;12.02;;;10.82;;
12798;SDS011;19250;42.646;26.980;2022-10-30T00:13:19;11.70;;;10.48;;
12798;SDS011;19250;42.646;26.980;2022-10-30T00:15:48;17.73;;;15.57;;
12798;SDS011;19250;42.646;26.980;2022-10-30T00:18:18;16.17;;;12.55;;
12798;SDS011;19250;42.646;26.980;2022-10-30T00:20:46;20.20;;;17.55;;
12798;SDS011;19250;42.646;26.980;2022-10-30T00:23:13;13.70;;;11.07;;
12798;SDS011;19250;42.646;26.980;2022-10-30T00:25:40;12.20;;;10.90;;
12798;SDS011;19250;42.646;26.980;2022-10-30T00:28:08;15.02;;;12.43;;
12798;SDS011;19250;42.646;26.980;2022-10-30T00:30:36;18.15;;;14.52;;
12798;SDS011;19250;42.646;26.980;2022-10-30T00:33:03;14.75;;;12.00;;
12798;SDS011;19250;42.646;26.980;2022-10-30T00:35:32;14.70;;;11.75;;
12798;SDS011;19250;42.646;26.980;2022-10-30T00:38:00;21.08;;;16.90;;
12798;SDS011;19250;42.646;26.980;2022-10-30T00:40:27;14.27;;;12.75;;
12798;SDS011;19250;42.646;26.980;2022-10-30T00:42:54;11.13;;;9.93;;
12798;SDS011;19250;42.646;26.980;2022-10-30T00:45:22;22.00;;;16.13;;
12798;SDS011;19250;42.646;26.980;2022-10-30T00:47:51;13.82;;;11.93;;
12798;SDS011;19250;42.646;26.980;2022-10-30T00:50:21;14.57;;;12.13;;
12798;SDS011;19250;42.646;26.980;2022-10-30T00:52:53;11.75;;;10.05;;
12798;SDS011;19250;42.646;26.980;2022-10-30T00:55:25;11.10;;;9.68;;
12798;SDS011;19250;42.646;26.980;2022-10-30T00:57:56;11.77;;;10.15;;
12798;SDS011;19250;42.646;26.980;2022-10-30T01:00:25;11.18;;;10.02;;
12798;SDS011;19250;42.646;26.980;2022-10-30T01:02:54;10.07;;;9.07;;
12798;SDS011;19250;42.646;26.980;2022-10-30T01:05:23;9.98;;;8.98;;
12798;SDS011;19250;42.646;26.980;2022-10-30T01:07:55;11.32;;;9.77;;
12798;SDS011;19250;42.646;26.980;2022-10-30T01:10:22;10.15;;;8.60;;
12798;SDS011;19250;42.646;26.980;2022-10-30T01:12:50;11.60;;;10.20;;
12798;SDS011;19250;42.646;26.980;2022-10-30T01:15:21;21.90;;;17.35;;
12798;SDS011;19250;42.646;26.980;2022-10-30T01:18:05;16.27;;;13.43;;
12798;SDS011;19250;42.646;26.980;2022-10-30T01:23:45;20.05;;;16.58;;
12798;SDS011;19250;42.646;26.980;2022-10-30T01:26:24;15.43;;;13.20;;
12798;SDS011;19250;42.646;26.980;2022-10-30T01:29:06;33.28;;;24.52;;
12798;SDS011;19250;42.646;26.980;2022-10-30T01:31:50;28.27;;;19.80;;
12798;SDS011;19250;42.646;26.980;2022-10-30T01:34:26;32.58;;;23.63;;
12798;SDS011;19250;42.646;26.980;2022-10-30T01:37:00;13.15;;;10.60;;
12798;SDS011;19250;42.646;26.980;2022-10-30T01:39:33;10.60;;;9.15;;
12798;SDS011;19250;42.646;26.980;2022-10-30T01:42:09;10.52;;;9.27;;
12798;SDS011;19250;42.646;26.980;2022-10-30T01:44:37;12.45;;;11.02;;
12798;SDS011;19250;42.646;26.980;2022-10-30T01:47:12;10.70;;;9.20;;
12798;SDS011;19250;42.646;26.980;2022-10-30T01:50:01;9.93;;;8.83;;
12798;SDS011;19250;42.646;26.980;2022-10-30T01:52:36;10.82;;;9.73;;
12798;SDS011;19250;42.646;26.980;2022-10-30T01:55:15;10.13;;;8.93;;
12798;SDS011;19250;42.646;26.980;2022-10-30T01:57:53;10.50;;;8.98;;
12798;SDS011;19250;42.646;26.980;2022-10-30T02:00:25;9.70;;;8.60;;
12798;SDS011;19250;42.646;26.980;2022-10-30T02:02:53;10.73;;;8.60;;
12798;SDS011;19250;42.646;26.980;2022-10-30T02:05:24;10.57;;;8.25;;
12798;SDS011;19250;42.646;26.980;2022-10-30T02:07:55;9.93;;;8.93;;
12798;SDS011;19250;42.646;26.980;2022-10-30T02:10:24;12.07;;;9.18;;
12798;SDS011;19250;42.646;26.980;2022-10-30T02:12:52;11.80;;;9.27;;
12798;SDS011;19250;42.646;26.980;2022-10-30T02:15:19;11.90;;;9.85;;
12798;SDS011;19250;42.646;26.980;2022-10-30T02:17:47;11.32;;;9.63;;
12798;SDS011;19250;42.646;26.980;2022-10-30T02:20:16;10.03;;;8.97;;
12798;SDS011;19250;42.646;26.980;2022-10-30T02:22:44;11.43;;;8.95;;
12798;SDS011;19250;42.646;26.980;2022-10-30T02:25:12;9.50;;;8.35;;
12798;SDS011;19250;42.646;26.980;2022-10-30T02:27:39;9.73;;;8.30;;
12798;SDS011;19250;42.646;26.980;2022-10-30T02:30:07;8.75;;;7.82;;
12798;SDS011;19250;42.646;26.980;2022-10-30T02:32:35;9.63;;;8.60;;
12798;SDS011;19250;42.646;26.980;2022-10-30T02:35:03;11.90;;;8.73;;
12798;SDS011;19250;42.646;26.980;2022-10-30T02:37:32;10.98;;;8.98;;
12798;SDS011;19250;42.646;26.980;2022-10-30T02:40:00;8.93;;;8.02;;
12798;SDS011;19250;42.646;26.980;2022-10-30T02:42:28;10.00;;;8.88;;
12798;SDS011;19250;42.646;26.980;2022-10-30T02:47:41;9.13;;;8.23;;
12798;SDS011;19250;42.646;26.980;2022-10-30T02:50:08;12.02;;;10.23;;
12798;SDS011;19250;42.646;26.980;2022-10-30T02:52:37;12.23;;;9.65;;
12798;SDS011;19250;42.646;26.980;2022-10-30T02:55:04;9.55;;;8.52;;
12798;SDS011;19250;42.646;26.980;2022-10-30T02:57:32;11.43;;;8.95;;
12798;SDS011;19250;42.646;26.980;2022-10-30T02:59:59;10.38;;;8.43;;
12798;SDS011;19250;42.646;26.980;2022-10-30T03:02:27;9.55;;;8.55;;
12798;SDS011;19250;42.646;26.980;2022-10-30T03:04:54;9.57;;;8.50;;
12798;SDS011;19250;42.646;26.980;2022-10-30T03:07:21;12.18;;;10.05;;
12798;SDS011;19250;42.646;26.980;2022-10-30T03:09:50;12.10;;;10.63;;
12798;SDS011;19250;42.646;26.980;2022-10-30T03:12:18;13.38;;;11.25;;
12798;SDS011;19250;42.646;26.980;2022-10-30T03:14:46;14.05;;;11.15;;
12798;SDS011;19250;42.646;26.980;2022-10-30T03:17:13;13.27;;;10.82;;
12798;SDS011;19250;42.646;26.980;2022-10-30T03:19:40;12.60;;;10.05;;
12798;SDS011;19250;42.646;26.980;2022-10-30T03:22:07;11.68;;;9.93;;
12798;SDS011;19250;42.646;26.980;2022-10-30T03:24:35;10.48;;;9.38;;
12798;SDS011;19250;42.646;26.980;2022-10-30T03:27:03;9.77;;;8.77;;
12798;SDS011;19250;42.646;26.980;2022-10-30T03:29:32;10.32;;;8.75;;
12798;SDS011;19250;42.646;26.980;2022-10-30T03:31:59;10.10;;;8.50;;
12798;SDS011;19250;42.646;26.980;2022-10-30T03:34:26;10.68;;;8.40;;
12798;SDS011;19250;42.646;26.980;2022-10-30T03:36:53;10.05;;;8.07;;
12798;SDS011;19250;42.646;26.980;2022-10-30T03:39:21;9.13;;;7.90;;
12798;SDS011;19250;42.646;26.980;2022-10-30T03:41:48;10.50;;;8.32;;
12798;SDS011;19250;42.646;26.980;2022-10-30T03:44:17;10.50;;;9.02;;
12798;SDS011;19250;42.646;26.980;2022-10-30T03:46:44;10.18;;;9.00;;
12798;SDS011;19250;42.646;26.980;2022-10-30T03:49:11;10.50;;;9.20;;
12798;SDS011;19250;42.646;26.980;2022-10-30T03:51:38;12.67;;;9.53;;
12798;SDS011;19250;42.646;26.980;2022-10-30T03:54:06;11.13;;;10.02;;
12798;SDS011;19250;42.646;26.980;2022-10-30T03:56:33;10.95;;;9.80;;
12798;SDS011;19250;42.646;26.980;2022-10-30T03:59:00;11.13;;;9.27;;
12798;SDS011;19250;42.646;26.980;2022-10-30T04:01:29;11.75;;;9.23;;
12798;SDS011;19250;42.646;26.980;2022-10-30T04:03:56;11.65;;;10.45;;
12798;SDS011;19250;42.646;26.980;2022-10-30T04:06:23;13.30;;;11.70;;
12798;SDS011;19250;42.646;26.980;2022-10-30T04:08:53;12.68;;;11.35;;
12798;SDS011;19250;42.646;26.980;2022-10-30T04:11:20;13.40;;;11.38;;
12798;SDS011;19250;42.646;26.980;2022-10-30T04:13:47;12.52;;;11.32;;
12798;SDS011;19250;42.646;26.980;2022-10-30T04:16:14;15.35;;;11.35;;
12798;SDS011;19250;42.646;26.980;2022-10-30T04:18:43;13.10;;;11.45;;
12798;SDS011;19250;42.646;26.980;2022-10-30T04:24:32;14.30;;;12.38;;
12798;SDS011;19250;42.646;26.980;2022-10-30T04:26:59;13.65;;;12.25;;
12798;SDS011;19250;42.646;26.980;2022-10-30T04:29:26;26.73;;;18.53;;
12798;SDS011;19250;42.646;26.980;2022-10-30T04:31:54;23.60;;;18.20;;
12798;SDS011;19250;42.646;26.980;2022-10-30T04:34:22;16.42;;;13.23;;
12798;SDS011;19250;42.646;26.980;2022-10-30T04:36:49;16.58;;;14.98;;
12798;SDS011;19250;42.646;26.980;2022-10-30T04:39:17;16.30;;;14.57;;
12798;SDS011;19250;42.646;26.980;2022-10-30T04:41:44;17.23;;;14.68;;
12798;SDS011;19250;42.646;26.980;2022-10-30T04:44:11;18.17;;;14.90;;
12798;SDS011;19250;42.646;26.980;2022-10-30T04:46:38;19.38;;;15.00;;
12798;SDS011;19250;42.646;26.980;2022-10-30T04:49:06;18.55;;;15.88;;
12798;SDS011;19250;42.646;26.980;2022-10-30T04:51:35;19.00;;;17.00;;
12798;SDS011;19250;42.646;26.980;2022-10-30T04:54:02;20.63;;;17.40;;
12798;SDS011;19250;42.646;26.980;2022-10-30T04:56:29;19.77;;;17.10;;
12798;SDS011;19250;42.646;26.980;2022-10-30T04:58:57;19.60;;;17.20;;
12798;SDS011;19250;42.646;26.980;2022-10-30T05:01:25;19.10;;;16.98;;
12798;SDS011;19250;42.646;26.980;2022-10-30T05:03:52;20.15;;;15.13;;
12798;SDS011;19250;42.646;26.980;2022-10-30T05:06:20;21.00;;;16.13;;
12798;SDS011;19250;42.646;26.980;2022-10-30T05:08:50;27.30;;;21.90;;
12798;SDS011;19250;42.646;26.980;2022-10-30T05:11:20;25.15;;;20.50;;
12798;SDS011;19250;42.646;26.980;2022-10-30T05:13:47;26.48;;;20.98;;
12798;SDS011;19250;42.646;26.980;2022-10-30T05:16:14;32.33;;;27.20;;
12798;SDS011;19250;42.646;26.980;2022-10-30T05:18:41;28.33;;;23.48;;
12798;SDS011;19250;42.646;26.980;2022-10-30T05:21:09;26.20;;;22.33;;
12798;SDS011;19250;42.646;26.980;2022-10-30T05:23:36;28.65;;;25.65;;
12798;SDS011;19250;42.646;26.980;2022-10-30T05:26:05;28.95;;;25.85;;
12798;SDS011;19250;42.646;26.980;2022-10-30T05:28:32;30.50;;;25.65;;
12798;SDS011;19250;42.646;26.980;2022-10-30T05:30:59;29.63;;;25.33;;
12798;SDS011;19250;42.646;26.980;2022-10-30T05:33:27;35.60;;;30.92;;
12798;SDS011;19250;42.646;26.980;2022-10-30T05:35:54;40.03;;;30.05;;
12798;SDS011;19250;42.646;26.980;2022-10-30T05:38:21;33.83;;;28.35;;
12798;SDS011;19250;42.646;26.980;2022-10-30T05:40:48;46.78;;;41.85;;
12798;SDS011;19250;42.646;26.980;2022-10-30T05:43:17;47.28;;;42.22;;
12798;SDS011;19250;42.646;26.980;2022-10-30T05:45:47;37.25;;;33.55;;
12798;SDS011;19250;42.646;26.980;2022-10-30T05:48:14;30.92;;;27.67;;
12798;SDS011;19250;42.646;26.980;2022-10-30T05:50:42;29.67;;;26.73;;
12798;SDS011;19250;42.646;26.980;2022-10-30T05:53:09;24.90;;;22.30;;
12798;SDS011;19250;42.646;26.980;2022-10-30T05:55:36;24.75;;;22.13;;
12798;SDS011;19250;42.646;26.980;2022-10-30T05:58:04;23.63;;;21.17;;
12798;SDS011;19250;42.646;26.980;2022-10-30T06:00:34;23.20;;;20.15;;
12798;SDS011;19250;42.646;26.980;2022-10-30T06:03:03;23.52;;;19.10;;
12798;SDS011;19250;42.646;26.980;2022-10-30T06:05:33;22.03;;;19.63;;
12798;SDS011;19250;42.646;26.980;2022-10-30T06:08:02;23.27;;;20.25;;
12798;SDS011;19250;42.646;26.980;2022-10-30T06:10:30;22.15;;;19.85;;
12798;SDS011;19250;42.646;26.980;2022-10-30T06:12:58;25.33;;;20.50;;
12798;SDS011;19250;42.646;26.980;2022-10-30T06:15:26;21.98;;;18.55;;
12798;SDS011;19250;42.646;26.980;2022-10-30T06:17:56;19.92;;;17.83;;
12798;SDS011;19250;42.646;26.980;2022-10-30T06:20:24;20.42;;;17.67;;
12798;SDS011;19250;42.646;26.980;2022-10-30T06:22:53;18.33;;;14.43;;
12798;SDS011;19250;42.646;26.980;2022-10-30T06:25:21;13.60;;;12.20;;
12798;SDS011;19250;42.646;26.980;2022-10-30T06:27:49;13.52;;;11.60;;
12798;SDS011;19250;42.646;26.980;2022-10-30T06:30:17;13.47;;;11.77;;
12798;SDS011;19250;42.646;26.980;2022-10-30T06:32:45;14.00;;;12.60;;
12798;SDS011;19250;42.646;26.980;2022-10-30T06:35:16;16.45;;;13.55;;
12798;SDS011;19250;42.646;26.980;2022-10-30T06:37:44;15.30;;;13.20;;
12798;SDS011;19250;42.646;26.980;2022-10-30T06:40:12;16.50;;;12.38;;
12798;SDS011;19250;42.646;26.980;2022-10-30T06:42:42;13.27;;;11.75;;
12798;SDS011;19250;42.646;26.980;2022-10-30T06:45:10;16.23;;;12.13;;
12798;SDS011;19250;42.646;26.980;2022-10-30T06:47:39;18.45;;;13.23;;
12798;SDS011;19250;42.646;26.980;2022-10-30T06:50:07;12.60;;;11.37;;
12798;SDS011;19250;42.646;26.980;2022-10-30T06:52:37;18.88;;;11.77;;
12798;SDS011;19250;42.646;26.980;2022-10-30T06:55:05;15.35;;;11.15;;
12798;SDS011;19250;42.646;26.980;2022-10-30T06:57:33;14.98;;;11.45;;
12798;SDS011;19250;42.646;26.980;2022-10-30T07:00:00;24.65;;;12.27;;
12798;SDS011;19250;42.646;26.980;2022-10-30T07:02:28;22.17;;;12.20;;
12798;SDS011;19250;42.646;26.980;2022-10-30T07:04:55;27.58;;;13.38;;
12798;SDS011;19250;42.646;26.980;2022-10-30T07:07:22;11.68;;;10.48;;
12798;SDS011;19250;42.646;26.980;2022-10-30T07:09:51;12.02;;;9.88;;
12798;SDS011;19250;42.646;26.980;2022-10-30T07:12:18;10.90;;;9.88;;
12798;SDS011;19250;42.646;26.980;2022-10-30T07:14:45;13.10;;;10.20;;
12798;SDS011;19250;42.646;26.980;2022-10-30T07:17:13;11.43;;;10.23;;
12798;SDS011;19250;42.646;26.980;2022-10-30T07:19:40;11.80;;;10.60;;
12798;SDS011;19250;42.646;26.980;2022-10-30T07:22:07;13.70;;;10.27;;
12798;SDS011;19250;42.646;26.980;2022-10-30T07:24:34;12.40;;;10.73;;
12798;SDS011;19250;42.646;26.980;2022-10-30T07:27:03;12.27;;;10.80;;
12798;SDS011;19250;42.646;26.980;2022-10-30T07:29:30;12.35;;;10.68;;
12798;SDS011;19250;42.646;26.980;2022-10-30T07:31:58;12.10;;;10.85;;
12798;SDS011;19250;42.646;26.980;2022-10-30T07:34:25;15.60;;;14.07;;
12798;SDS011;19250;42.646;26.980;2022-10-30T07:36:52;16.13;;;13.55;;
12798;SDS011;19250;42.646;26.980;2022-10-30T07:39:19;12.40;;;10.10;;
12798;SDS011;19250;42.646;26.980;2022-10-30T07:41:47;15.60;;;14.07;;
12798;SDS011;19250;42.646;26.980;2022-10-30T07:44:16;11.07;;;9.70;;
12798;SDS011;19250;42.646;26.980;2022-10-30T07:46:43;14.70;;;11.50;;
12798;SDS011;19250;42.646;26.980;2022-10-30T07:49:10;10.18;;;9.18;;
12798;SDS011;19250;42.646;26.980;2022-10-30T07:51:38;12.87;;;11.50;;
12798;SDS011;19250;42.646;26.980;2022-10-30T07:54:05;14.23;;;12.77;;
12798;SDS011;19250;42.646;26.980;2022-10-30T07:56:32;12.00;;;9.18;;
12798;SDS011;19250;42.646;26.980;2022-10-30T07:58:59;11.65;;;9.63;;
12798;SDS011;19250;42.646;26.980;2022-10-30T08:01:28;7.68;;;6.68;;
12798;SDS011;19250;42.646;26.980;2022-10-30T08:03:55;9.32;;;7.22;;
12798;SDS011;19250;42.646;26.980;2022-10-30T08:06:22;10.98;;;8.18;;
12798;SDS011;19250;42.646;26.980;2022-10-30T08:08:49;9.87;;;7.83;;
12798;SDS011;19250;42.646;26.980;2022-10-30T08:11:17;11.18;;;10.00;;
12798;SDS011;19250;42.646;26.980;2022-10-30T08:13:44;12.43;;;7.90;;
12798;SDS011;19250;42.646;26.980;2022-10-30T08:16:11;9.15;;;7.28;;
12798;SDS011;19250;42.646;26.980;2022-10-30T08:18:41;15.35;;;10.40;;
12798;SDS011;19250;42.646;26.980;2022-10-30T08:21:08;6.65;;;5.95;;
12798;SDS011;19250;42.646;26.980;2022-10-30T08:23:36;12.85;;;8.07;;
12798;SDS011;19250;42.646;26.980;2022-10-30T08:26:03;8.80;;;6.68;;
12798;SDS011;19250;42.646;26.980;2022-10-30T08:28:31;7.87;;;6.50;;
12798;SDS011;19250;42.646;26.980;2022-10-30T08:30:59;9.85;;;6.55;;
12798;SDS011;19250;42.646;26.980;2022-10-30T08:33:26;10.68;;;7.05;;
12798;SDS011;19250;42.646;26.980;2022-10-30T08:35:56;10.47;;;7.20;;
12798;SDS011;19250;42.646;26.980;2022-10-30T08:38:25;8.52;;;6.00;;
12798;SDS011;19250;42.646;26.980;2022-10-30T08:40:53;13.27;;;7.60;;
12798;SDS011;19250;42.646;26.980;2022-10-30T08:43:21;9.53;;;7.23;;
12798;SDS011;19250;42.646;26.980;2022-10-30T08:45:49;9.98;;;6.32;;
12798;SDS011;19250;42.646;26.980;2022-10-30T08:48:16;9.85;;;7.13;;
12798;SDS011;19250;42.646;26.980;2022-10-30T08:50:44;11.43;;;6.63;;
12798;SDS011;19250;42.646;26.980;2022-10-30T08:53:13;8.23;;;6.60;;
12798;SDS011;19250;42.646;26.980;2022-10-30T08:55:41;8.75;;;6.57;;
12798;SDS011;19250;42.646;26.980;2022-10-30T08:58:08;8.57;;;6.60;;
12798;SDS011;19250;42.646;26.980;2022-10-30T09:00:36;10.40;;;6.27;;
12798;SDS011;19250;42.646;26.980;2022-10-30T09:03:03;8.55;;;5.70;;
12798;SDS011;19250;42.646;26.980;2022-10-30T09:05:30;9.82;;;7.10;;
12798;SDS011;19250;42.646;26.980;2022-10-30T09:07:57;8.60;;;6.47;;
12798;SDS011;19250;42.646;26.980;2022-10-30T09:10:27;8.13;;;6.68;;
12798;SDS011;19250;42.646;26.980;2022-10-30T09:12:54;7.85;;;6.60;;
12798;SDS011;19250;42.646;26.980;2022-10-30T09:15:22;9.05;;;6.90;;
12798;SDS011;19250;42.646;26.980;2022-10-30T09:17:54;9.65;;;6.93;;
12798;SDS011;19250;42.646;26.980;2022-10-30T09:20:23;8.30;;;6.68;;
12798;SDS011;19250;42.646;26.980;2022-10-30T09:22:51;8.73;;;6.30;;
12798;SDS011;19250;42.646;26.980;2022-10-30T09:25:18;8.13;;;6.25;;
12798;SDS011;19250;42.646;26.980;2022-10-30T09:27:53;9.20;;;6.55;;
12798;SDS011;19250;42.646;26.980;2022-10-30T09:30:20;10.53;;;7.93;;
12798;SDS011;19250;42.646;26.980;2022-10-30T09:32:52;7.35;;;6.55;;
12798;SDS011;19250;42.646;26.980;2022-10-30T09:35:20;7.70;;;5.85;;
12798;SDS011;19250;42.646;26.980;2022-10-30T09:37:48;8.73;;;6.07;;
12798;SDS011;19250;42.646;26.980;2022-10-30T09:40:18;10.32;;;6.10;;
12798;SDS011;19250;42.646;26.980;2022-10-30T09:42:51;9.02;;;5.95;;
12798;SDS011;19250;42.646;26.980;2022-10-30T09:45:27;6.63;;;5.80;;
12798;SDS011;19250;42.646;26.980;2022-10-30T09:48:15;7.95;;;6.05;;
12798;SDS011;19250;42.646;26.980;2022-10-30T09:51:04;7.97;;;5.90;;
12798;SDS011;19250;42.646;26.980;2022-10-30T09:53:48;7.40;;;5.55;;
12798;SDS011;19250;42.646;26.980;2022-10-30T09:56:22;8.68;;;7.40;;
12798;SDS011;19250;42.646;26.980;2022-10-30T09:58:58;8.02;;;6.60;;
12798;SDS011;19250;42.646;26.980;2022-10-30T10:01:36;7.00;;;6.30;;
12798;SDS011;19250;42.646;26.980;2022-10-30T10:04:11;9.18;;;6.75;;
12798;SDS011;19250;42.646;26.980;2022-10-30T10:06:49;7.90;;;6.10;;
12798;SDS011;19250;42.646;26.980;2022-10-30T10:09:21;7.68;;;5.40;;
12798;SDS011;19250;42.646;26.980;2022-10-30T10:11:52;9.50;;;5.90;;
12798;SDS011;19250;42.646;26.980;2022-10-30T10:14:23;8.38;;;6.78;;
12798;SDS011;19250;42.646;26.980;2022-10-30T10:16:54;9.07;;;6.30;;
12798;SDS011;19250;42.646;26.980;2022-10-30T10:19:27;9.35;;;6.40;;
12798;SDS011;19250;42.646;26.980;2022-10-30T10:21:58;10.65;;;6.88;;
12798;SDS011;19250;42.646;26.980;2022-10-30T10:24:27;7.03;;;5.63;;
12798;SDS011;19250;42.646;26.980;2022-10-30T10:26:59;7.85;;;5.90;;
12798;SDS011;19250;42.646;26.980;2022-10-30T10:29:43;7.05;;;6.22;;
12798;SDS011;19250;42.646;26.980;2022-10-30T10:32:32;11.13;;;7.35;;
12798;SDS011;19250;42.646;26.980;2022-10-30T10:35:15;8.95;;;6.78;;
12798;SDS011;19250;42.646;26.980;2022-10-30T10:37:51;8.05;;;6.82;;
12798;SDS011;19250;42.646;26.980;2022-10-30T10:40:27;7.60;;;6.80;;
12798;SDS011;19250;42.646;26.980;2022-10-30T10:43:10;8.50;;;7.17;;
12798;SDS011;19250;42.646;26.980;2022-10-30T10:45:49;9.80;;;6.90;;
12798;SDS011;19250;42.646;26.980;2022-10-30T10:48:32;8.98;;;6.88;;
12798;SDS011;19250;42.646;26.980;2022-10-30T10:51:10;8.27;;;7.32;;
12798;SDS011;19250;42.646;26.980;2022-10-30T10:53:42;7.40;;;6.18;;
12798;SDS011;19250;42.646;26.980;2022-10-30T10:56:13;7.03;;;6.32;;
12798;SDS011;19250;42.646;26.980;2022-10-30T10:58:44;6.37;;;5.73;;
12798;SDS011;19250;42.646;26.980;2022-10-30T11:01:18;8.23;;;6.10;;
12798;SDS011;19250;42.646;26.980;2022-10-30T11:03:51;9.60;;;6.40;;
12798;SDS011;19250;42.646;26.980;2022-10-30T11:06:26;7.93;;;5.80;;
12798;SDS011;19250;42.646;26.980;2022-10-30T11:08:57;6.93;;;5.93;;
12798;SDS011;19250;42.646;26.980;2022-10-30T11:11:37;7.95;;;6.13;;
12798;SDS011;19250;42.646;26.980;2022-10-30T11:14:07;7.90;;;6.18;;
12798;SDS011;19250;42.646;26.980;2022-10-30T11:16:49;8.93;;;6.18;;
12798;SDS011;19250;42.646;26.980;2022-10-30T11:19:22;12.25;;;6.10;;
12798;SDS011;19250;42.646;26.980;2022-10-30T11:21:50;6.30;;;5.20;;
12798;SDS011;19250;42.646;26.980;2022-10-30T11:24:28;7.20;;;5.43;;
12798;SDS011;19250;42.646;26.980;2022-10-30T11:26:56;7.22;;;5.88;;
12798;SDS011;19250;42.646;26.980;2022-10-30T11:29:25;6.40;;;5.30;;
12798;SDS011;19250;42.646;26.980;2022-10-30T11:32:00;6.95;;;5.32;;
12798;SDS011;19250;42.646;26.980;2022-10-30T11:34:30;7.38;;;4.80;;
12798;SDS011;19250;42.646;26.980;2022-10-30T11:36:59;5.85;;;5.25;;
12798;SDS011;19250;42.646;26.980;2022-10-30T11:39:28;6.13;;;5.00;;
12798;SDS011;19250;42.646;26.980;2022-10-30T11:42:00;6.28;;;4.97;;
12798;SDS011;19250;42.646;26.980;2022-10-30T11:44:32;6.05;;;5.05;;
12798;SDS011;19250;42.646;26.980;2022-10-30T11:47:05;7.47;;;4.57;;
12798;SDS011;19250;42.646;26.980;2022-10-30T11:49:41;5.20;;;4.63;;
12798;SDS011;19250;42.646;26.980;2022-10-30T11:52:12;5.70;;;5.10;;
12798;SDS011;19250;42.646;26.980;2022-10-30T11:54:42;6.00;;;4.88;;
12798;SDS011;19250;42.646;26.980;2022-10-30T11:57:17;4.78;;;4.32;;
12798;SDS011;19250;42.646;26.980;2022-10-30T11:59:48;6.57;;;5.05;;
12798;SDS011;19250;42.646;26.980;2022-10-30T12:02:23;6.28;;;4.97;;
12798;SDS011;19250;42.646;26.980;2022-10-30T12:04:52;5.95;;;5.07;;
12798;SDS011;19250;42.646;26.980;2022-10-30T12:07:24;5.57;;;4.30;;
12798;SDS011;19250;42.646;26.980;2022-10-30T12:09:53;6.60;;;4.70;;
12798;SDS011;19250;42.646;26.980;2022-10-30T12:12:25;8.10;;;5.50;;
12798;SDS011;19250;42.646;26.980;2022-10-30T12:14:57;6.70;;;5.27;;
12798;SDS011;19250;42.646;26.980;2022-10-30T12:17:35;7.18;;;4.88;;
12798;SDS011;19250;42.646;26.980;2022-10-30T12:20:05;5.43;;;4.82;;
12798;SDS011;19250;42.646;26.980;2022-10-30T12:22:34;6.93;;;5.60;;
12798;SDS011;19250;42.646;26.980;2022-10-30T12:25:02;4.93;;;4.43;;
12798;SDS011;19250;42.646;26.980;2022-10-30T12:27:33;7.93;;;5.60;;
12798;SDS011;19250;42.646;26.980;2022-10-30T12:30:05;5.15;;;4.65;;
12798;SDS011;19250;42.646;26.980;2022-10-30T12:32:46;6.30;;;4.80;;
12798;SDS011;19250;42.646;26.980;2022-10-30T12:35:31;5.55;;;4.85;;
12798;SDS011;19250;42.646;26.980;2022-10-30T12:38:06;7.18;;;5.18;;
12798;SDS011;19250;42.646;26.980;2022-10-30T12:40:42;20.38;;;18.75;;
12798;SDS011;19250;42.646;26.980;2022-10-30T12:43:16;7.45;;;6.22;;
12798;SDS011;19250;42.646;26.980;2022-10-30T12:45:48;6.05;;;5.45;;
12798;SDS011;19250;42.646;26.980;2022-10-30T12:48:22;6.13;;;4.82;;
12798;SDS011;19250;42.646;26.980;2022-10-30T12:50:56;7.32;;;5.80;;
12798;SDS011;19250;42.646;26.980;2022-10-30T12:53:37;5.85;;;4.85;;
12798;SDS011;19250;42.646;26.980;2022-10-30T12:56:09;6.05;;;4.55;;
12798;SDS011;19250;42.646;26.980;2022-10-30T12:58:45;7.32;;;5.00;;
12798;SDS011;19250;42.646;26.980;2022-10-30T13:01:18;7.22;;;5.15;;
12798;SDS011;19250;42.646;26.980;2022-10-30T13:03:54;9.43;;;5.22;;
12798;SDS011;19250;42.646;26.980;2022-10-30T13:06:30;5.43;;;4.65;;
12798;SDS011;19250;42.646;26.980;2022-10-30T13:09:04;6.28;;;4.75;;
12798;SDS011;19250;42.646;26.980;2022-10-30T13:11:47;8.60;;;5.55;;
12798;SDS011;19250;42.646;26.980;2022-10-30T13:14:20;6.03;;;5.32;;
12798;SDS011;19250;42.646;26.980;2022-10-30T13:16:52;7.07;;;5.43;;
12798;SDS011;19250;42.646;26.980;2022-10-30T13:19:22;5.38;;;4.82;;
12798;SDS011;19250;42.646;26.980;2022-10-30T13:21:52;5.80;;;5.30;;
12798;SDS011;19250;42.646;26.980;2022-10-30T13:24:33;5.73;;;5.23;;
12798;SDS011;19250;42.646;26.980;2022-10-30T13:27:11;6.90;;;6.20;;
12798;SDS011;19250;42.646;26.980;2022-10-30T13:29:43;10.05;;;6.40;;
12798;SDS011;19250;42.646;26.980;2022-10-30T13:32:19;8.75;;;5.72;;
12798;SDS011;19250;42.646;26.980;2022-10-30T13:34:57;9.77;;;5.80;;
12798;SDS011;19250;42.646;26.980;2022-10-30T13:37:31;7.53;;;5.40;;
12798;SDS011;19250;42.646;26.980;2022-10-30T13:40:10;8.02;;;5.80;;
12798;SDS011;19250;42.646;26.980;2022-10-30T13:42:56;8.57;;;6.20;;
12798;SDS011;19250;42.646;26.980;2022-10-30T13:45:43;9.10;;;6.32;;
12798;SDS011;19250;42.646;26.980;2022-10-30T13:48:26;8.98;;;6.97;;
12798;SDS011;19250;42.646;26.980;2022-10-30T13:51:11;9.73;;;6.50;;
12798;SDS011;19250;42.646;26.980;2022-10-30T13:53:48;8.85;;;6.30;;
12798;SDS011;19250;42.646;26.980;2022-10-30T13:56:26;8.10;;;6.38;;
12798;SDS011;19250;42.646;26.980;2022-10-30T13:58:56;14.02;;;9.48;;
12798;SDS011;19250;42.646;26.980;2022-10-30T14:01:31;9.15;;;7.18;;
12798;SDS011;19250;42.646;26.980;2022-10-30T14:04:04;7.85;;;5.93;;
12798;SDS011;19250;42.646;26.980;2022-10-30T14:06:38;7.28;;;6.18;;
12798;SDS011;19250;42.646;26.980;2022-10-30T14:09:13;11.60;;;6.63;;
12798;SDS011;19250;42.646;26.980;2022-10-30T14:11:49;13.27;;;7.93;;
12798;SDS011;19250;42.646;26.980;2022-10-30T14:14:26;12.95;;;8.50;;
12798;SDS011;19250;42.646;26.980;2022-10-30T14:17:09;10.50;;;8.00;;
12798;SDS011;19250;42.646;26.980;2022-10-30T14:22:43;10.75;;;6.93;;
12798;SDS011;19250;42.646;26.980;2022-10-30T14:25:38;10.35;;;6.55;;
12798;SDS011;19250;42.646;26.980;2022-10-30T14:28:12;10.50;;;6.78;;
12798;SDS011;19250;42.646;26.980;2022-10-30T14:30:46;10.43;;;6.70;;
12798;SDS011;19250;42.646;26.980;2022-10-30T14:36:13;10.20;;;7.40;;
12798;SDS011;19250;42.646;26.980;2022-10-30T14:38:52;13.60;;;9.93;;
12798;SDS011;19250;42.646;26.980;2022-10-30T14:41:23;25.63;;;18.93;;
12798;SDS011;19250;42.646;26.980;2022-10-30T14:44:05;8.38;;;7.15;;
12798;SDS011;19250;42.646;26.980;2022-10-30T14:47:05;60.72;;;48.72;;
12798;SDS011;19250;42.646;26.980;2022-10-30T14:49:52;70.72;;;56.63;;
12798;SDS011;19250;42.646;26.980;2022-10-30T14:52:31;80.43;;;67.75;;
12798;SDS011;19250;42.646;26.980;2022-10-30T14:55:17;77.60;;;62.58;;
12798;SDS011;19250;42.646;26.980;2022-10-30T14:57:51;44.70;;;37.53;;